San Francisco, CA

2:36 PM PST on March 06, 2015 (GMT -0800)
SOMA - Near Van Ness | Change Station
CLOSE
Current Station
Personal Weather Station
Location: San Francisco, CA
Elevation: 49 ft
Nearby Weather Stations

Elev 49 ft 37.77 °N, 122.42 °W | Updated 46 seconds ago

Clear
Clear
72.5 °F
Feels Like 77 °F
N
1.0
Wind Variable Wind from WSW
Gusts 11.0 mph

Today
High -- | Low -- °F
--% Chance of Precip.
Yesterday
High -- | Low -- °F
Precip. -- in
6:34 AM 6:08 PM
Full, 99% visible
Pressure 30.20 in
Visibility 10.0 miles
Clouds Clear
Heat Index 77 °F
Dew Point 45 °F
Humidity 37%
Rainfall in
Snow Depth Not available.
UV 5 out of 12
Pollen 8.30 out of 12
Air Quality Not available.
Flu Activity Not available.
METAR KSFO 062156Z 00000KT 10SM CLR 21/09 A3020 RMK AO2 SLP227 T02060089

More Conditions Fewer Conditions

Pressure 30.20 in
Visibility 10.0 miles
Clouds Clear
Heat Index 77 °F
Dew Point 45 °F
Humidity 37%
Rainfall in
Snow Depth Not available.
UV 5 out of 12
Pollen 8.30 out of 12
Air Quality Not available.
Flu Activity Not available.
METAR KSFO 062156Z 00000KT 10SM CLR 21/09 A3020 RMK AO2 SLP227 T02060089

More Conditions Fewer Conditions

10-Day Weather Forecast

Almanac

Astronomy

Mar. 06, 2015 Rise Set
Actual Time
Civil Twilight
Nautical Twilight
Astronomical Twilight
Moon
Length of Visible Light
Length of Day
Tomorrow will be .
, % of the Moon is Illuminated

Today's Extremes

State Highs State Lows

Community

WunderPhotos

Upload Photos

1,803,420 photos uploaded!

WunderBlogs® & News

Nearby

Air Quality

  Air Quality AQ Index Pollutant
Not available.

Snow Depth

Station Depth Elevation

Earthquake Activity

City Distance Mag. Time & Date
Minimum magnitude displayed is 2.5.

Coastal Water Temperatures

Place Temperature

Nearby Weather Stations